createdAt,value
2022-08-26T00:00:20.855Z,100560.41
2022-08-26T00:02:49.407Z,100557.13
2022-08-26T00:05:18.030Z,100552.97
2022-08-26T00:07:46.457Z,100554.91
2022-08-26T00:10:15.605Z,100555.22
2022-08-26T00:12:44.058Z,100556.59
2022-08-26T00:15:17.004Z,100553.25
2022-08-26T00:17:45.460Z,100557.69
2022-08-26T00:20:19.976Z,100549.94
2022-08-26T00:22:48.796Z,100557.69
2022-08-26T00:25:18.027Z,100550.78
2022-08-26T00:27:47.490Z,100556.84
2022-08-26T00:30:22.875Z,100553.81
2022-08-26T00:32:52.939Z,100559.31
2022-08-26T00:35:22.804Z,100563.19
2022-08-26T00:37:51.365Z,100559.84
2022-08-26T00:40:23.478Z,100568.13
2022-08-26T00:42:52.930Z,100568.69
2022-08-26T00:45:23.319Z,100567.84
2022-08-26T00:47:55.579Z,100563.97
2022-08-26T00:50:28.220Z,100566.44
2022-08-26T00:52:59.122Z,100565.63
2022-08-26T00:55:37.751Z,100566.72
2022-08-26T00:58:08.554Z,100566.44
2022-08-26T01:00:38.387Z,100576.34
2022-08-26T01:03:11.506Z,100568.34
2022-08-26T01:05:42.402Z,100566.16
2022-08-26T01:08:11.282Z,100562.00
2022-08-26T01:10:40.708Z,100559.50
2022-08-26T01:13:11.450Z,100560.63
2022-08-26T01:15:48.683Z,100556.47
2022-08-26T01:18:17.252Z,100562.56
2022-08-26T01:20:57.789Z,100554.53
2022-08-26T01:23:34.280Z,100556.75
2022-08-26T01:26:19.502Z,100560.88
2022-08-26T01:28:51.673Z,100561.97
2022-08-26T01:31:45.497Z,100564.75
2022-08-26T01:34:21.350Z,100555.31
2022-08-26T01:36:51.812Z,100563.59
2022-08-26T01:39:21.909Z,100556.41
2022-08-26T01:41:53.748Z,100550.91
2022-08-26T01:44:26.932Z,100552.00
2022-08-26T01:46:58.676Z,100558.59
2022-08-26T01:49:29.184Z,100558.06
2022-08-26T01:52:02.184Z,100557.47
2022-08-26T01:54:33.720Z,100549.50
2022-08-26T01:57:03.177Z,100556.66
2022-08-26T01:59:32.139Z,100567.63
2022-08-26T02:02:00.535Z,100558.00
2022-08-26T02:04:33.564Z,100568.75
2022-08-26T02:07:06.288Z,100557.97
2022-08-26T02:09:41.299Z,100567.88
2022-08-26T02:12:11.901Z,100565.13
2022-08-26T02:14:44.406Z,100562.38
2022-08-26T02:17:13.237Z,100566.22
2022-08-26T02:19:46.528Z,100564.53
2022-08-26T02:22:19.772Z,100561.25
2022-08-26T02:24:52.532Z,100563.19
2022-08-26T02:27:23.877Z,100565.13
2022-08-26T02:29:56.652Z,100570.88
2022-08-26T02:32:25.787Z,100566.72
2022-08-26T02:34:55.890Z,100572.50
2022-08-26T02:37:24.419Z,100572.22
2022-08-26T02:39:55.221Z,100566.41
2022-08-26T02:42:23.906Z,100571.91
2022-08-26T02:44:53.463Z,100576.03
2022-08-26T02:47:24.914Z,100576.25
2022-08-26T02:49:53.550Z,100580.66
2022-08-26T02:52:22.188Z,100578.44
2022-08-26T02:54:50.656Z,100583.09
2022-08-26T02:57:20.772Z,100580.06
2022-08-26T02:59:50.583Z,100575.94
2022-08-26T03:02:19.086Z,100575.94
2022-08-26T03:04:57.787Z,100585.25
2022-08-26T03:07:32.111Z,100582.50
2022-08-26T03:10:00.864Z,100586.63
2022-08-26T03:12:30.638Z,100587.38
2022-08-26T03:14:58.973Z,100587.38
2022-08-26T03:17:27.466Z,100587.31
2022-08-26T03:19:57.230Z,100584.00
2022-08-26T03:22:27.124Z,100592.53
2022-08-26T03:24:55.916Z,100587.56
2022-08-26T03:27:24.339Z,100590.31
2022-08-26T03:30:11.848Z,100591.91
2022-08-26T03:32:41.500Z,100590.03
2022-08-26T03:35:10.676Z,100591.09
2022-08-26T03:37:39.725Z,100592.78
2022-08-26T03:40:10.503Z,100594.16
2022-08-26T03:42:40.906Z,100590.03
2022-08-26T03:45:17.053Z,100588.94
2022-08-26T03:47:45.772Z,100587.88
2022-08-26T03:50:17.619Z,100590.34
2022-08-26T03:52:51.999Z,100585.66
2022-08-26T03:55:23.771Z,100597.78
2022-08-26T03:57:52.394Z,100591.97
2022-08-26T04:00:22.626Z,100591.69
2022-08-26T04:02:53.370Z,100597.19
2022-08-26T04:05:23.431Z,100604.34
2022-08-26T04:07:52.956Z,100598.81
2022-08-26T04:10:28.758Z,100596.91
2022-08-26T04:12:58.916Z,100599.94
2022-08-26T04:15:29.740Z,100609.53
2022-08-26T04:17:58.426Z,100602.38
2022-08-26T04:20:27.001Z,100616.13
2022-08-26T04:22:55.426Z,100605.94
2022-08-26T04:25:24.338Z,100609.59
2022-08-26T04:27:52.991Z,100600.78
2022-08-26T04:30:22.065Z,100604.63
2022-08-26T04:32:51.931Z,100604.91
2022-08-26T04:35:25.775Z,100609.88
2022-08-26T04:37:55.607Z,100608.50
2022-08-26T04:40:24.663Z,100609.34
2022-08-26T04:42:54.415Z,100610.50
2022-08-26T04:45:23.074Z,100608.88
2022-08-26T04:47:56.504Z,100607.25
2022-08-26T04:50:26.789Z,100614.16
2022-08-26T04:52:55.445Z,100610.88
2022-08-26T04:55:38.425Z,100606.78
2022-08-26T04:58:11.284Z,100608.19
2022-08-26T05:00:40.510Z,100608.72
2022-08-26T05:03:10.810Z,100617.28
2022-08-26T05:05:41.368Z,100614.00
2022-08-26T05:08:11.306Z,100604.97
2022-08-26T05:10:44.571Z,100611.59
2022-08-26T05:13:15.616Z,100606.09
2022-08-26T05:15:45.571Z,100609.44
2022-08-26T05:18:17.765Z,100611.13
2022-08-26T05:20:50.225Z,100612.53
2022-08-26T05:23:21.835Z,100608.44
2022-08-26T05:25:54.767Z,100614.28
2022-08-26T05:28:29.629Z,100621.22
2022-08-26T05:30:58.630Z,100611.59
2022-08-26T05:33:29.487Z,100614.94
2022-08-26T05:35:57.891Z,100606.13
2022-08-26T05:38:26.822Z,100616.66
2022-08-26T05:40:59.072Z,100610.84
2022-08-26T05:43:31.387Z,100616.94
2022-08-26T05:46:08.140Z,100616.13
2022-08-26T05:48:38.141Z,100615.06
2022-08-26T05:51:09.487Z,100617.56
2022-08-26T05:53:38.480Z,100613.44
2022-08-26T05:56:08.275Z,100614.25
2022-08-26T05:58:37.941Z,100609.03
2022-08-26T06:01:10.370Z,100613.16
2022-08-26T06:03:44.767Z,100611.78
2022-08-26T06:06:16.130Z,100606.81
2022-08-26T06:08:49.059Z,100607.34
2022-08-26T06:11:19.894Z,100613.97
2022-08-26T06:13:48.716Z,100617.84
2022-08-26T06:16:18.702Z,100609.81
2022-08-26T06:18:50.716Z,100613.66
2022-08-26T06:21:24.148Z,100616.69
2022-08-26T06:24:12.574Z,100612.50
2022-08-26T06:26:42.794Z,100609.97
2022-08-26T06:29:11.402Z,100611.06
2022-08-26T06:31:44.262Z,100613.00
2022-08-26T06:34:14.256Z,100610.47
2022-08-26T06:36:44.845Z,100612.34
2022-08-26T06:39:16.559Z,100614.50
2022-08-26T06:41:46.523Z,100612.25
2022-08-26T06:44:21.021Z,100613.59
2022-08-26T06:46:50.473Z,100612.19
2022-08-26T06:49:25.861Z,100614.03
2022-08-26T06:51:58.556Z,100610.72
2022-08-26T06:54:28.013Z,100618.91
2022-08-26T06:56:57.632Z,100618.31
2022-08-26T06:59:26.751Z,100618.25
2022-08-26T07:01:55.585Z,100616.78
2022-08-26T07:04:27.949Z,100611.16
2022-08-26T07:06:57.427Z,100618.53
2022-08-26T07:09:29.309Z,100612.41
2022-08-26T07:11:58.184Z,100604.56
2022-08-26T07:14:27.156Z,100605.03
2022-08-26T07:16:56.140Z,100604.38
2022-08-26T07:19:30.166Z,100605.19
2022-08-26T07:22:03.651Z,100607.28
2022-08-26T07:24:32.906Z,100611.03
2022-08-26T07:27:02.803Z,100602.09
2022-08-26T07:29:31.458Z,100601.69
2022-08-26T07:32:00.426Z,100609.88
2022-08-26T07:34:32.297Z,100607.72
2022-08-26T07:37:02.299Z,100602.03
2022-08-26T07:39:31.868Z,100597.75
2022-08-26T07:42:03.848Z,100594.84
2022-08-26T07:44:36.808Z,100598.88
2022-08-26T07:47:10.052Z,100596.28
2022-08-26T07:49:54.956Z,100596.09
2022-08-26T07:52:26.589Z,100592.63
2022-08-26T07:54:56.636Z,100600.88
2022-08-26T07:57:25.217Z,100602.16
2022-08-26T07:59:55.220Z,100591.50
2022-08-26T08:02:24.755Z,100594.19
2022-08-26T08:04:55.393Z,100592.34
2022-08-26T08:07:38.694Z,100590.50
2022-08-26T08:10:14.196Z,100593.41
2022-08-26T08:12:42.731Z,100588.78
2022-08-26T08:15:13.447Z,100590.53
2022-08-26T08:17:42.993Z,100593.19
2022-08-26T08:20:14.915Z,100587.25
2022-08-26T08:22:43.817Z,100589.97
2022-08-26T08:25:13.171Z,100590.25
2022-08-26T08:27:43.252Z,100588.38
2022-08-26T08:30:13.830Z,100584.53
2022-08-26T08:32:44.555Z,100588.56
2022-08-26T08:35:17.657Z,100584.13
2022-08-26T08:37:46.739Z,100580.81
2022-08-26T08:40:18.594Z,100585.00
2022-08-26T08:45:27.463Z,100580.53
2022-08-26T08:47:58.953Z,100581.16
2022-08-26T08:50:32.486Z,100577.19
2022-08-26T08:53:11.229Z,100580.94
2022-08-26T08:55:49.994Z,100578.38
2022-08-26T08:58:23.532Z,100578.50
2022-08-26T09:01:00.185Z,100580.69
2022-08-26T09:03:40.963Z,100568.19
2022-08-26T09:06:17.513Z,100574.75
2022-08-26T09:08:50.451Z,100576.22
2022-08-26T09:11:21.341Z,100568.09
2022-08-26T09:13:53.205Z,100565.59
2022-08-26T09:16:26.194Z,100561.91
2022-08-26T09:19:05.296Z,100559.25
2022-08-26T09:21:35.286Z,100559.09
2022-08-26T09:24:04.007Z,100556.75
2022-08-26T09:26:45.520Z,100562.03
2022-08-26T09:29:22.438Z,100562.56
2022-08-26T09:31:51.193Z,100553.00
2022-08-26T09:34:22.508Z,100554.75
2022-08-26T09:36:54.715Z,100552.25
2022-08-26T09:39:31.719Z,100557.91
2022-08-26T09:42:06.232Z,100545.22
2022-08-26T09:44:37.151Z,100554.28
2022-08-26T09:47:06.966Z,100543.91
2022-08-26T09:49:37.244Z,100548.84
2022-08-26T09:52:16.453Z,100554.16
2022-08-26T09:54:46.229Z,100551.38
2022-08-26T09:57:18.845Z,100547.13
2022-08-26T09:59:47.746Z,100549.38
2022-08-26T10:02:37.437Z,100539.44
2022-08-26T10:05:10.955Z,100537.09
2022-08-26T10:07:45.229Z,100546.53
2022-08-26T10:10:19.112Z,100535.19
2022-08-26T10:12:54.359Z,100543.28
2022-08-26T10:15:26.742Z,100544.97
2022-08-26T10:18:21.237Z,100540.44
2022-08-26T10:20:58.147Z,100532.69
2022-08-26T10:23:32.568Z,100528.06
2022-08-26T10:26:07.049Z,100526.84
2022-08-26T10:28:41.517Z,100519.31
2022-08-26T10:31:27.410Z,100528.13
2022-08-26T10:34:00.343Z,100523.41
2022-08-26T10:37:14.724Z,100525.22
2022-08-26T10:39:53.004Z,100513.16
2022-08-26T10:42:31.356Z,100515.56
2022-08-26T10:45:07.615Z,100511.97
2022-08-26T10:47:47.646Z,100510.59
2022-08-26T10:50:18.005Z,100510.00
2022-08-26T10:52:56.551Z,100506.00
2022-08-26T10:55:34.697Z,100506.13
2022-08-26T10:58:26.264Z,100501.03
2022-08-26T11:01:22.735Z,100495.66
2022-08-26T11:03:58.913Z,100490.78
2022-08-26T11:06:29.804Z,100486.78
2022-08-26T11:08:59.885Z,100493.88
2022-08-26T11:11:50.758Z,100481.81
2022-08-26T11:14:40.698Z,100490.44
2022-08-26T11:17:55.456Z,100488.41
2022-08-26T11:20:35.954Z,100474.78
2022-08-26T11:23:50.812Z,100479.53
2022-08-26T11:26:36.281Z,100478.66
2022-08-26T11:29:13.563Z,100490.16
2022-08-26T11:31:57.586Z,100486.34
2022-08-26T11:35:02.221Z,100476.69
2022-08-26T11:37:40.497Z,100474.88
2022-08-26T11:40:13.334Z,100467.69
2022-08-26T11:42:45.183Z,100480.06
2022-08-26T11:45:24.001Z,100479.78
2022-08-26T11:47:52.534Z,100467.63
2022-08-26T11:50:26.166Z,100474.22
2022-08-26T11:52:59.286Z,100475.19
2022-08-26T11:55:27.751Z,100475.03
2022-08-26T11:58:00.967Z,100467.66
2022-08-26T12:00:34.473Z,100469.19
2022-08-26T12:03:08.130Z,100476.47
2022-08-26T12:05:43.591Z,100466.09
2022-08-26T12:08:17.940Z,100466.34
2022-08-26T12:10:46.429Z,100459.41
2022-08-26T12:13:23.322Z,100459.97
2022-08-26T12:15:56.820Z,100458.84
2022-08-26T12:18:29.537Z,100461.03
2022-08-26T12:21:01.706Z,100464.22
2022-08-26T12:23:41.727Z,100461.63
2022-08-26T12:26:14.269Z,100458.69
2022-08-26T12:28:47.198Z,100461.03
2022-08-26T12:31:25.342Z,100457.13
2022-08-26T12:33:55.226Z,100455.38
2022-08-26T12:36:28.624Z,100459.47
2022-08-26T12:38:58.556Z,100460.84
2022-08-26T12:41:46.567Z,100446.25
2022-08-26T12:44:53.628Z,100448.53
2022-08-26T12:47:33.859Z,100447.88
2022-08-26T12:50:19.426Z,100438.81
2022-08-26T12:52:57.297Z,100437.03
2022-08-26T12:55:29.147Z,100443.59
2022-08-26T12:58:21.693Z,100445.13
2022-08-26T13:00:50.823Z,100434.09
2022-08-26T13:03:43.994Z,100433.09
2022-08-26T13:06:16.332Z,100430.59
2022-08-26T13:08:46.829Z,100430.75
2022-08-26T13:11:20.899Z,100430.44
2022-08-26T13:13:51.944Z,100420.91
2022-08-26T13:16:22.907Z,100421.25
2022-08-26T13:18:55.727Z,100420.94
2022-08-26T13:21:26.154Z,100418.47
2022-08-26T13:23:55.425Z,100418.16
2022-08-26T13:26:24.087Z,100415.34
2022-08-26T13:29:01.394Z,100415.66
2022-08-26T13:31:32.412Z,100411.44
2022-08-26T13:34:04.446Z,100407.94
2022-08-26T13:36:33.110Z,100406.50
2022-08-26T13:39:01.723Z,100402.22
2022-08-26T13:41:32.067Z,100405.66
2022-08-26T13:44:00.843Z,100409.31
2022-08-26T13:46:30.184Z,100401.13
2022-08-26T13:48:59.037Z,100399.28
2022-08-26T13:51:29.938Z,100403.72
2022-08-26T13:53:58.670Z,100399.78
2022-08-26T13:56:29.749Z,100396.97
2022-08-26T13:58:58.659Z,100404.38
2022-08-26T14:01:27.593Z,100402.91
2022-08-26T14:03:56.347Z,100401.94
2022-08-26T14:06:25.171Z,100405.75
2022-08-26T14:08:55.069Z,100404.09
2022-08-26T14:11:25.176Z,100398.03
2022-08-26T14:13:54.074Z,100397.72
2022-08-26T14:16:27.114Z,100397.38
2022-08-26T14:18:56.329Z,100403.47
2022-08-26T14:21:26.647Z,100407.03
2022-08-26T14:24:00.721Z,100397.03
2022-08-26T14:26:30.135Z,100402.94
2022-08-26T14:28:59.837Z,100402.63
2022-08-26T14:31:29.484Z,100397.34
2022-08-26T14:34:00.352Z,100402.25
2022-08-26T14:36:33.017Z,100407.50
2022-08-26T14:39:06.688Z,100402.25
2022-08-26T14:41:39.537Z,100405.34
2022-08-26T14:44:13.780Z,100402.84
2022-08-26T14:46:45.869Z,100403.47
2022-08-26T14:49:15.148Z,100399.06
2022-08-26T14:51:43.600Z,100401.69
2022-08-26T14:54:13.485Z,100397.91
2022-08-26T14:56:46.034Z,100401.75
2022-08-26T14:59:15.984Z,100407.44
2022-08-26T15:01:44.734Z,100401.53
2022-08-26T15:04:13.280Z,100410.03
2022-08-26T15:06:42.114Z,100407.59
2022-08-26T15:09:12.631Z,100408.72
2022-08-26T15:11:41.426Z,100406.72
2022-08-26T15:14:14.715Z,100404.56
2022-08-26T15:16:49.089Z,100408.00
2022-08-26T15:19:18.434Z,100399.31
2022-08-26T15:21:47.556Z,100401.28
2022-08-26T15:24:19.798Z,100406.03
2022-08-26T15:26:49.607Z,100410.78
2022-08-26T15:29:18.648Z,100410.78
2022-08-26T15:31:47.845Z,100419.97
2022-08-26T15:34:17.320Z,100416.69
2022-08-26T15:36:47.114Z,100410.94
2022-08-26T15:39:18.177Z,100418.78
2022-08-26T15:41:47.186Z,100414.84
2022-08-26T15:44:18.033Z,100414.97
2022-08-26T15:46:46.769Z,100412.16
2022-08-26T15:49:17.523Z,100416.00
2022-08-26T15:51:48.275Z,100414.75
2022-08-26T15:54:20.029Z,100416.22
2022-08-26T15:56:50.800Z,100423.25
2022-08-26T15:59:20.688Z,100410.28
2022-08-26T16:01:49.447Z,100416.69
2022-08-26T16:04:18.785Z,100413.03
2022-08-26T16:06:50.532Z,100417.78
2022-08-26T16:09:21.233Z,100426.75
2022-08-26T16:11:49.692Z,100426.38
2022-08-26T16:14:18.170Z,100416.56
2022-08-26T16:16:47.297Z,100427.69
2022-08-26T16:19:15.985Z,100425.66
2022-08-26T16:21:45.203Z,100424.34
2022-08-26T16:24:14.407Z,100426.09
2022-08-26T16:26:45.724Z,100427.22
2022-08-26T16:29:16.163Z,100428.66
2022-08-26T16:31:44.709Z,100430.94
2022-08-26T16:34:13.237Z,100423.22
2022-08-26T16:36:41.713Z,100421.88
2022-08-26T16:39:10.718Z,100423.34
2022-08-26T16:41:39.262Z,100432.53
2022-08-26T16:44:11.569Z,100428.09
2022-08-26T16:46:41.345Z,100435.94
2022-08-26T16:49:09.882Z,100429.38
2022-08-26T16:51:38.582Z,100428.31
2022-08-26T16:54:08.950Z,100436.19
2022-08-26T16:56:38.350Z,100432.25
2022-08-26T16:59:11.740Z,100440.94
2022-08-26T17:01:40.380Z,100436.19
2022-08-26T17:04:08.936Z,100441.22
2022-08-26T17:06:38.344Z,100437.63
2022-08-26T17:09:07.174Z,100432.06
2022-08-26T17:11:35.572Z,100434.34
2022-08-26T17:14:04.318Z,100441.97
2022-08-26T17:16:34.230Z,100442.81
2022-08-26T17:19:04.605Z,100436.75
2022-08-26T17:21:34.479Z,100435.06
2022-08-26T17:24:03.382Z,100432.63
2022-08-26T17:26:32.031Z,100436.03
2022-08-26T17:29:00.587Z,100441.59
2022-08-26T17:31:29.162Z,100438.28
2022-08-26T17:33:59.200Z,100430.91
2022-08-26T17:36:28.484Z,100428.25
2022-08-26T17:38:58.340Z,100435.25
2022-08-26T17:41:28.048Z,100439.13
2022-08-26T17:43:57.207Z,100433.66
2022-08-26T17:46:26.017Z,100429.78
2022-08-26T17:48:54.523Z,100439.25
2022-08-26T17:51:25.563Z,100428.94
2022-08-26T17:53:54.659Z,100433.38
2022-08-26T17:56:25.996Z,100437.47
2022-08-26T17:58:56.925Z,100435.63
2022-08-26T18:01:27.393Z,100425.66
2022-08-26T18:04:00.269Z,100430.19
2022-08-26T18:06:31.793Z,100434.09
2022-08-26T18:09:00.549Z,100427.72
2022-08-26T18:11:29.902Z,100426.41
2022-08-26T18:14:00.018Z,100437.00
2022-08-26T18:16:33.735Z,100433.41
2022-08-26T18:19:02.191Z,100438.16
2022-08-26T18:21:32.134Z,100432.38
2022-08-26T18:24:00.566Z,100424.94
2022-08-26T18:26:31.297Z,100427.25
2022-08-26T18:29:00.364Z,100432.78
2022-08-26T18:31:29.587Z,100432.59
2022-08-26T18:34:00.340Z,100428.78
2022-08-26T18:36:31.027Z,100428.88
2022-08-26T18:39:01.512Z,100429.81
2022-08-26T18:41:32.382Z,100433.84
2022-08-26T18:44:01.046Z,100437.59
2022-08-26T18:46:29.840Z,100450.88
2022-08-26T18:48:58.577Z,100442.97
2022-08-26T18:51:30.138Z,100452.72
2022-08-26T18:53:58.959Z,100451.97
2022-08-26T18:56:29.324Z,100450.94
2022-08-26T18:58:58.444Z,100454.13
2022-08-26T19:01:27.880Z,100451.13
2022-08-26T19:03:56.828Z,100453.19
2022-08-26T19:06:27.622Z,100453.59
2022-08-26T19:08:58.010Z,100457.53
2022-08-26T19:11:31.353Z,100464.81
2022-08-26T19:14:01.694Z,100464.41
2022-08-26T19:16:31.335Z,100460.88
2022-08-26T19:19:01.514Z,100470.09
2022-08-26T19:21:30.997Z,100464.34
2022-08-26T19:24:01.117Z,100471.09
2022-08-26T19:26:32.406Z,100473.63
2022-08-26T19:29:01.567Z,100478.47
2022-08-26T19:31:30.123Z,100475.75
2022-08-26T19:33:59.638Z,100481.38
2022-08-26T19:36:29.579Z,100482.03
2022-08-26T19:38:58.239Z,100475.50
2022-08-26T19:41:37.212Z,100486.34
2022-08-26T19:44:10.366Z,100488.91
2022-08-26T19:49:12.447Z,100494.28
2022-08-26T19:51:40.874Z,100494.94
2022-08-26T19:54:09.365Z,100487.19
2022-08-26T19:56:37.914Z,100487.81
2022-08-26T19:59:07.742Z,100495.91
2022-08-26T20:01:36.279Z,100498.72
2022-08-26T20:04:05.171Z,100501.00
2022-08-26T20:06:33.618Z,100501.91
2022-08-26T20:09:02.035Z,100509.72
2022-08-26T20:11:31.268Z,100514.44
2022-08-26T20:13:59.845Z,100515.03
2022-08-26T20:16:29.802Z,100514.00
2022-08-26T20:19:24.126Z,100516.75
2022-08-26T20:21:52.590Z,100513.47
2022-08-26T20:24:22.201Z,100517.88
2022-08-26T20:26:51.114Z,100515.13
2022-08-26T20:29:20.200Z,100516.53
2022-08-26T20:31:52.546Z,100517.66
2022-08-26T20:34:21.245Z,100511.88
2022-08-26T20:36:51.493Z,100521.06
2022-08-26T20:39:21.325Z,100522.25
2022-08-26T20:41:50.192Z,100525.13
2022-08-26T20:44:19.058Z,100527.97
2022-08-26T20:46:47.610Z,100523.28
2022-08-26T20:49:18.326Z,100530.81
2022-08-26T20:51:50.902Z,100520.13
2022-08-26T20:54:21.505Z,100522.63
2022-08-26T20:56:52.078Z,100521.50
2022-08-26T20:59:23.065Z,100526.78
2022-08-26T21:01:51.781Z,100520.44
2022-08-26T21:04:24.320Z,100523.47
2022-08-26T21:06:54.499Z,100518.25
2022-08-26T21:09:25.193Z,100520.44
2022-08-26T21:11:54.868Z,100515.44
2022-08-26T21:14:26.012Z,100517.38
2022-08-26T21:16:54.885Z,100516.56
2022-08-26T21:19:25.030Z,100516.56
2022-08-26T21:21:53.548Z,100519.88
2022-08-26T21:24:22.476Z,100519.13
2022-08-26T21:26:51.226Z,100524.66
2022-08-26T21:29:22.139Z,100518.88
2022-08-26T21:31:50.974Z,100516.13
2022-08-26T21:34:20.409Z,100519.19
2022-08-26T21:36:50.901Z,100526.41
2022-08-26T21:39:20.008Z,100514.22
2022-08-26T21:41:48.648Z,100512.84
2022-08-26T21:44:18.771Z,100518.38
2022-08-26T21:46:47.657Z,100514.78
2022-08-26T21:49:17.884Z,100516.44
2022-08-26T21:51:48.472Z,100523.91
2022-08-26T21:54:19.310Z,100517.81
2022-08-26T21:56:48.402Z,100523.66
2022-08-26T21:59:19.762Z,100530.56
2022-08-26T22:01:48.662Z,100523.41
2022-08-26T22:04:17.512Z,100521.22
2022-08-26T22:06:47.907Z,100527.00
2022-08-26T22:09:21.234Z,100533.97
2022-08-26T22:11:50.326Z,100531.50
2022-08-26T22:14:30.189Z,100527.38
2022-08-26T22:17:00.343Z,100530.41
2022-08-26T22:19:30.005Z,100530.97
2022-08-26T22:21:58.910Z,100530.44
2022-08-26T22:24:28.944Z,100537.41
2022-08-26T22:26:58.190Z,100531.66
2022-08-26T22:29:27.289Z,100536.59
2022-08-26T22:31:55.813Z,100529.16
2022-08-26T22:34:24.375Z,100532.72
2022-08-26T22:36:52.857Z,100530.53
2022-08-26T22:39:24.011Z,100525.28
2022-08-26T22:41:55.377Z,100530.25
2022-08-26T22:44:24.304Z,100533.06
2022-08-26T22:46:55.621Z,100531.09
2022-08-26T22:49:25.129Z,100531.09
2022-08-26T22:51:53.653Z,100526.97
2022-08-26T22:54:22.277Z,100520.31
2022-08-26T22:56:50.748Z,100520.31
2022-08-26T22:59:20.697Z,100524.50
2022-08-26T23:01:49.359Z,100516.47
2022-08-26T23:04:17.804Z,100519.25
2022-08-26T23:06:47.816Z,100511.81
2022-08-26T23:09:18.200Z,100520.38
2022-08-26T23:11:47.613Z,100520.94
2022-08-26T23:14:17.733Z,100521.75
2022-08-26T23:16:47.888Z,100517.63
2022-08-26T23:19:18.398Z,100522.31
2022-08-26T23:21:47.293Z,100513.19
2022-08-26T23:24:15.943Z,100519.00
2022-08-26T23:26:45.809Z,100519.03
2022-08-26T23:29:16.056Z,100517.38
2022-08-26T23:31:44.903Z,100521.53
2022-08-26T23:34:33.207Z,100512.97
2022-08-26T23:37:02.081Z,100517.94
2022-08-26T23:39:35.479Z,100523.19
2022-08-26T23:42:04.105Z,100522.06
2022-08-26T23:44:33.930Z,100520.69
2022-08-26T23:47:02.521Z,100517.13
2022-08-26T23:49:32.733Z,100518.50
2022-08-26T23:52:19.165Z,100517.66
2022-08-26T23:54:48.824Z,100518.50
2022-08-26T23:57:19.858Z,100524.84
2022-08-26T23:59:48.690Z,100526.22
